PAOO

Details ICAO PAOO (OOK)
Name TOKSOOK BAY
Region USA (Alaska)
Timezone America/Nome (UTC-8.0)
Plans Departing 3
Arriving 4
Stats Elevation 59 ft / 18 m (AMSL)
Location 60.541336° -165.087185°
Runways 1
Magnetic Variation 9.888° E
Sunrise 2018-05-26 13:55:17 UTC / 2018-05-26 05:55:17 Local
Sunset 2018-05-27 08:02:29 UTC / 2018-05-27 00:02:29 Local
Advertisement - Login to hide

Runways

ID Width Length Bearing (true) Bearing (mag) Surface Threshold Offset Overrun Length
16 59 ft / 18 m 3,212 ft / 979 m 176.91° 167.02° Gravel 0 ft / 0 m 0 ft / 0 m
34 59 ft / 18 m 3,212 ft / 979 m 356.91° 347.02° Gravel 0 ft / 0 m 0 ft / 0 m

Map

Weather


0- 5 10 15 20 25 30 35+ Temperature / ° C

Clouds and Precipitation
Forecast for 2018-05-27 00:00 UTC. Updated 5 hours ago

Ground ~20,000 ft ~40,000 ft Winds

METAR

PAOO 270356Z AUTO 27019G23KT 10SM -RA BKN018 OVC025 03/M01 A2993 RMK AO2 RAB25 SLP147 P0000 T00331006

TAF

Not found

Frequencies

Unicom 122.90 MHz CTAF
Approach 125.20 MHz ANCHORAGE CNTR
Warning: Do not use this data for real-world aviation or navigation. No guarantee of current accuracy is given.